Potsdam, Ohio
Current Conditions -  °F | °C
As of 4:56 PM on Friday 24 Oct 2014 (Local Time) from KDAY Reporting Station
Scattered Clouds Scattered Clouds  
Wind Chill: 66°   Ceiling: Unl
Heat Index: 66°   Visibility: 10mi
Dew Point: 38°   Wind: 7mph
Humidity: 36%   Direction: 240°WSW
Pressure: 30.03"   Gusts: NA
Location:  39.96°N, 84.42°W
Report Text: KDAY 242056Z 24006KT 10SM FEW055 SCT150 19/03 A3003 RMK AO2 SLP169 T01890033 56014
Loading
Personal Weather Stations






























Interactive Weather Map
Tropical Storm Tracking
New forecast layout! Learn more

10-Day Weather Forecast

Advertisements
Track Severe Weather on mobile